createdAt,value
2023-09-30T00:01:00.292Z,18.70
2023-09-30T00:03:28.253Z,18.80
2023-09-30T00:05:56.604Z,18.80
2023-09-30T00:08:26.111Z,18.80
2023-09-30T00:10:55.763Z,18.80
2023-09-30T00:13:23.874Z,18.70
2023-09-30T00:15:51.743Z,18.60
2023-09-30T00:18:19.711Z,18.60
2023-09-30T00:20:49.127Z,18.60
2023-09-30T00:23:17.105Z,18.50
2023-09-30T00:25:46.308Z,18.50
2023-09-30T00:28:14.389Z,18.40
2023-09-30T00:30:42.432Z,18.30
2023-09-30T00:33:10.412Z,18.30
2023-09-30T00:35:38.345Z,18.20
2023-09-30T00:38:06.194Z,18.20
2023-09-30T00:40:34.036Z,18.10
2023-09-30T00:43:03.339Z,18.10
2023-09-30T00:45:32.050Z,18.10
2023-09-30T00:48:00.146Z,18.10
2023-09-30T00:50:29.699Z,18.20
2023-09-30T00:52:57.859Z,18.30
2023-09-30T00:55:25.984Z,18.40
2023-09-30T00:57:54.031Z,18.50
2023-09-30T01:00:26.464Z,18.50
2023-09-30T01:02:55.116Z,18.70
2023-09-30T01:05:23.117Z,18.70
2023-09-30T01:07:50.958Z,18.90
2023-09-30T01:10:18.833Z,18.90
2023-09-30T01:12:47.967Z,18.90
2023-09-30T01:15:15.886Z,19.00
2023-09-30T01:17:45.097Z,19.00
2023-09-30T01:20:17.613Z,19.00
2023-09-30T01:22:47.670Z,19.00
2023-09-30T01:25:15.586Z,19.10
2023-09-30T01:27:44.027Z,19.10
2023-09-30T01:30:14.727Z,19.10
2023-09-30T01:32:42.692Z,19.10
2023-09-30T01:35:10.958Z,19.10
2023-09-30T01:37:38.822Z,19.20
2023-09-30T01:40:12.613Z,19.20
2023-09-30T01:42:40.932Z,19.30
2023-09-30T01:45:09.774Z,19.20
2023-09-30T01:47:37.785Z,19.10
2023-09-30T01:50:06.906Z,19.10
2023-09-30T01:52:34.881Z,19.10
2023-09-30T01:55:02.860Z,19.10
2023-09-30T01:57:32.208Z,19.00
2023-09-30T02:00:00.227Z,19.00
2023-09-30T02:02:28.589Z,19.00
2023-09-30T02:04:56.560Z,19.10
2023-09-30T02:07:24.567Z,19.10
2023-09-30T02:09:52.509Z,19.00
2023-09-30T02:12:20.613Z,19.00
2023-09-30T02:14:50.126Z,19.00
2023-09-30T02:17:18.224Z,19.00
2023-09-30T02:19:46.751Z,19.00
2023-09-30T02:22:14.660Z,19.00
2023-09-30T02:24:42.776Z,19.00
2023-09-30T02:27:11.003Z,19.00
2023-09-30T02:29:39.070Z,19.00
2023-09-30T02:32:08.472Z,19.00
2023-09-30T02:34:36.526Z,19.00
2023-09-30T02:37:04.462Z,19.00
2023-09-30T02:39:32.444Z,19.00
2023-09-30T02:42:00.415Z,19.00
2023-09-30T02:44:28.496Z,19.00
2023-09-30T02:46:56.535Z,19.00
2023-09-30T02:49:25.777Z,19.00
2023-09-30T02:51:53.710Z,19.00
2023-09-30T02:54:21.660Z,19.00
2023-09-30T02:56:49.803Z,19.00
2023-09-30T02:59:18.280Z,19.00
2023-09-30T03:01:46.406Z,19.00
2023-09-30T03:04:14.381Z,19.00
2023-09-30T03:06:45.847Z,18.90
2023-09-30T03:09:16.275Z,18.90
2023-09-30T03:11:44.825Z,18.80
2023-09-30T03:14:13.456Z,18.80
2023-09-30T03:16:42.676Z,18.80
2023-09-30T03:19:12.580Z,18.80
2023-09-30T03:21:41.017Z,18.80
2023-09-30T03:24:11.190Z,18.70
2023-09-30T03:26:41.985Z,18.70
2023-09-30T03:29:10.373Z,18.60
2023-09-30T03:31:38.418Z,18.40
2023-09-30T03:34:06.590Z,18.20
2023-09-30T03:36:34.617Z,18.00
2023-09-30T03:39:06.843Z,18.00
2023-09-30T03:41:38.023Z,17.90
2023-09-30T03:44:06.331Z,17.90
2023-09-30T03:46:34.345Z,17.80
2023-09-30T03:49:03.759Z,17.80
2023-09-30T03:51:31.781Z,17.70
2023-09-30T03:54:00.057Z,17.70
2023-09-30T03:56:28.038Z,17.60
2023-09-30T03:58:57.817Z,17.50
2023-09-30T04:01:26.938Z,17.40
2023-09-30T04:03:56.925Z,17.30
2023-09-30T04:06:25.313Z,17.20
2023-09-30T04:08:53.465Z,17.10
2023-09-30T04:11:21.819Z,17.10
2023-09-30T04:13:51.074Z,17.00
2023-09-30T04:16:21.151Z,16.90
2023-09-30T04:18:51.403Z,16.80
2023-09-30T04:21:19.508Z,16.80
2023-09-30T04:24:43.333Z,16.70
2023-09-30T04:27:11.261Z,16.70
2023-09-30T04:29:40.253Z,16.60
2023-09-30T04:32:09.553Z,16.60
2023-09-30T04:34:37.645Z,16.50
2023-09-30T04:37:06.335Z,16.60
2023-09-30T04:39:36.737Z,16.60
2023-09-30T04:42:05.961Z,16.70
2023-09-30T04:44:33.826Z,16.80
2023-09-30T04:47:02.016Z,16.80
2023-09-30T04:49:31.828Z,16.90
2023-09-30T04:51:59.724Z,17.00
2023-09-30T04:54:27.702Z,17.00
2023-09-30T04:56:55.792Z,17.00
2023-09-30T04:59:26.067Z,17.00
2023-09-30T05:01:54.477Z,17.00
2023-09-30T05:04:22.876Z,17.00
2023-09-30T05:06:52.239Z,17.10
2023-09-30T05:09:20.309Z,17.00
2023-09-30T05:11:48.209Z,16.90
2023-09-30T05:14:17.544Z,16.90
2023-09-30T05:16:45.658Z,17.00
2023-09-30T05:19:13.685Z,16.70
2023-09-30T05:21:42.053Z,16.70
2023-09-30T05:24:12.101Z,16.60
2023-09-30T05:26:40.120Z,16.50
2023-09-30T05:29:08.547Z,16.50
2023-09-30T05:31:36.547Z,16.40
2023-09-30T05:34:05.353Z,16.40
2023-09-30T05:36:33.315Z,16.40
2023-09-30T05:39:01.228Z,16.40
2023-09-30T05:41:30.857Z,16.30
2023-09-30T05:43:59.878Z,16.40
2023-09-30T05:46:28.261Z,16.40
2023-09-30T05:48:56.373Z,16.40
2023-09-30T05:51:24.510Z,16.40
2023-09-30T05:53:53.447Z,16.40
2023-09-30T05:56:21.659Z,16.40
2023-09-30T05:58:50.859Z,16.40
2023-09-30T06:01:20.157Z,16.30
2023-09-30T06:03:48.849Z,16.30
2023-09-30T06:06:17.162Z,16.40
2023-09-30T06:08:46.317Z,16.30
2023-09-30T06:11:19.257Z,16.40
2023-09-30T06:13:47.346Z,16.40
2023-09-30T06:16:17.249Z,16.50
2023-09-30T06:18:46.450Z,16.70
2023-09-30T06:21:15.816Z,16.80
2023-09-30T06:23:44.342Z,16.90
2023-09-30T06:26:12.291Z,17.00
2023-09-30T06:28:42.142Z,17.00
2023-09-30T06:31:10.941Z,17.10
2023-09-30T06:33:41.333Z,17.20
2023-09-30T06:36:14.821Z,17.20
2023-09-30T06:38:43.700Z,17.20
2023-09-30T06:41:11.707Z,17.20
2023-09-30T06:43:39.615Z,17.30
2023-09-30T06:46:11.302Z,17.30
2023-09-30T06:48:42.202Z,17.40
2023-09-30T06:51:11.458Z,17.40
2023-09-30T06:53:39.383Z,17.50
2023-09-30T06:56:07.904Z,17.60
2023-09-30T06:58:36.252Z,17.60
2023-09-30T07:01:04.380Z,17.70
2023-09-30T07:03:34.116Z,17.70
2023-09-30T07:06:04.098Z,17.80
2023-09-30T07:08:32.113Z,17.90
2023-09-30T07:10:59.997Z,17.90
2023-09-30T07:13:27.944Z,18.00
2023-09-30T07:15:55.890Z,18.00
2023-09-30T07:18:26.160Z,17.90
2023-09-30T07:20:54.377Z,17.80
2023-09-30T07:23:23.777Z,17.80
2023-09-30T07:25:51.784Z,17.80
2023-09-30T07:28:19.712Z,17.80
2023-09-30T07:30:51.445Z,17.90
2023-09-30T07:33:19.375Z,18.10
2023-09-30T07:35:47.507Z,18.20
2023-09-30T07:38:15.475Z,18.40
2023-09-30T07:40:44.740Z,18.60
2023-09-30T07:43:13.918Z,18.80
2023-09-30T07:45:41.855Z,18.60
2023-09-30T07:48:10.674Z,18.60
2023-09-30T07:50:38.861Z,18.50
2023-09-30T07:53:07.313Z,18.50
2023-09-30T07:55:35.301Z,18.60
2023-09-30T07:58:04.882Z,18.60
2023-09-30T08:00:34.990Z,18.60
2023-09-30T08:03:03.611Z,18.70
2023-09-30T08:05:31.618Z,18.80
2023-09-30T08:07:59.540Z,18.80
2023-09-30T08:10:27.467Z,18.90
2023-09-30T08:12:58.364Z,19.10
2023-09-30T08:15:28.311Z,19.40
2023-09-30T08:17:56.452Z,19.70
2023-09-30T08:20:24.473Z,19.80
2023-09-30T08:22:52.693Z,20.00
2023-09-30T08:25:20.685Z,20.20
2023-09-30T08:27:50.827Z,20.40
2023-09-30T08:30:19.760Z,20.50
2023-09-30T08:32:51.804Z,20.60
2023-09-30T08:35:20.716Z,20.70
2023-09-30T08:37:49.162Z,20.80
2023-09-30T08:40:22.580Z,20.90
2023-09-30T08:43:46.959Z,21.00
2023-09-30T08:46:17.852Z,21.20
2023-09-30T08:48:49.440Z,21.40
2023-09-30T08:51:18.199Z,21.60
2023-09-30T08:54:14.065Z,21.60
2023-09-30T08:56:44.504Z,21.60
2023-09-30T08:59:13.768Z,21.70
2023-09-30T09:01:42.203Z,22.00
2023-09-30T09:04:12.168Z,22.30
2023-09-30T09:06:40.428Z,22.70
2023-09-30T09:09:19.290Z,22.90
2023-09-30T09:11:48.017Z,23.10
2023-09-30T09:14:16.982Z,23.10
2023-09-30T09:16:55.231Z,23.10
2023-09-30T09:19:25.578Z,22.90
2023-09-30T09:21:58.751Z,23.10
2023-09-30T09:24:30.923Z,23.40
2023-09-30T09:27:09.660Z,23.60
2023-09-30T09:29:38.524Z,23.90
2023-09-30T09:32:10.470Z,24.10
2023-09-30T09:34:40.228Z,24.20
2023-09-30T09:37:18.934Z,24.10
2023-09-30T09:39:58.183Z,24.10
2023-09-30T09:42:27.688Z,25.00
2023-09-30T09:44:58.953Z,25.80
2023-09-30T09:47:28.308Z,25.80
2023-09-30T09:49:59.972Z,25.80
2023-09-30T09:52:29.342Z,26.10
2023-09-30T09:54:58.931Z,26.50
2023-09-30T09:57:28.081Z,26.40
2023-09-30T09:59:59.843Z,27.10
2023-09-30T10:02:30.166Z,28.20
2023-09-30T10:05:00.505Z,28.90
2023-09-30T10:07:32.011Z,28.90
2023-09-30T10:10:04.383Z,28.20
2023-09-30T10:12:39.285Z,27.70
2023-09-30T10:15:41.005Z,27.50
2023-09-30T10:18:14.488Z,27.50
2023-09-30T10:20:49.178Z,27.40
2023-09-30T10:23:28.573Z,27.20
2023-09-30T10:26:16.763Z,26.90
2023-09-30T10:28:47.517Z,26.60
2023-09-30T10:31:19.074Z,26.20
2023-09-30T10:34:20.632Z,25.70
2023-09-30T10:36:51.987Z,25.30
2023-09-30T10:39:59.415Z,25.10
2023-09-30T10:42:50.967Z,24.80
2023-09-30T10:45:48.378Z,24.50
2023-09-30T10:48:39.136Z,24.40
2023-09-30T10:51:17.319Z,24.40
2023-09-30T10:53:52.544Z,24.30
2023-09-30T10:56:21.248Z,24.50
2023-09-30T10:58:50.467Z,24.60
2023-09-30T11:01:20.175Z,24.70
2023-09-30T11:03:50.651Z,24.60
2023-09-30T11:06:22.429Z,24.50
2023-09-30T11:08:57.607Z,24.40
2023-09-30T11:11:40.996Z,24.60
2023-09-30T11:14:19.625Z,24.80
2023-09-30T11:16:48.346Z,25.00
2023-09-30T11:19:17.127Z,25.20
2023-09-30T11:21:46.175Z,25.30
2023-09-30T11:24:16.345Z,25.30
2023-09-30T11:26:44.387Z,25.40
2023-09-30T11:29:14.536Z,25.60
2023-09-30T11:31:44.205Z,25.70
2023-09-30T11:34:12.988Z,25.80
2023-09-30T11:36:43.421Z,25.70
2023-09-30T11:39:14.418Z,25.60
2023-09-30T11:41:45.413Z,25.40
2023-09-30T11:44:16.374Z,25.60
2023-09-30T11:46:53.308Z,25.70
2023-09-30T11:49:29.153Z,25.70
2023-09-30T11:51:57.683Z,25.70
2023-09-30T11:54:33.221Z,25.70
2023-09-30T11:57:04.180Z,25.80
2023-09-30T11:59:32.339Z,25.80
2023-09-30T12:02:13.661Z,25.80
2023-09-30T12:04:44.233Z,25.90
2023-09-30T12:07:12.453Z,26.00
2023-09-30T12:09:41.356Z,26.10
2023-09-30T12:12:12.008Z,26.10
2023-09-30T12:14:40.854Z,26.00
2023-09-30T12:17:12.084Z,26.00
2023-09-30T12:19:41.779Z,26.00
2023-09-30T12:22:11.252Z,25.80
2023-09-30T12:24:39.253Z,25.70
2023-09-30T12:27:07.850Z,25.60
2023-09-30T12:29:39.675Z,25.40
2023-09-30T12:32:08.564Z,25.20
2023-09-30T12:34:37.188Z,25.00
2023-09-30T12:37:05.597Z,24.60
2023-09-30T12:39:34.859Z,24.40
2023-09-30T12:42:03.059Z,24.20
2023-09-30T12:44:31.264Z,23.90
2023-09-30T12:47:00.633Z,23.70
2023-09-30T12:49:28.566Z,23.60
2023-09-30T12:51:57.197Z,23.50
2023-09-30T12:54:25.254Z,23.40
2023-09-30T12:56:53.292Z,23.30
2023-09-30T12:59:25.323Z,23.10
2023-09-30T13:01:53.496Z,23.00
2023-09-30T13:04:24.802Z,22.90
2023-09-30T13:06:52.745Z,22.90
2023-09-30T13:09:21.139Z,22.90
2023-09-30T13:11:49.381Z,22.80
2023-09-30T13:14:17.772Z,22.70
2023-09-30T13:16:46.635Z,22.70
2023-09-30T13:19:16.956Z,22.70
2023-09-30T13:21:46.195Z,22.70
2023-09-30T13:24:14.173Z,22.60
2023-09-30T13:26:42.412Z,22.60
2023-09-30T13:29:11.048Z,22.60
2023-09-30T13:31:39.260Z,22.50
2023-09-30T13:34:07.721Z,22.50
2023-09-30T13:36:35.588Z,22.40
2023-09-30T13:39:06.537Z,22.40
2023-09-30T13:41:36.555Z,22.40
2023-09-30T13:44:04.731Z,22.30
2023-09-30T13:46:32.575Z,22.30
2023-09-30T13:49:00.640Z,22.30
2023-09-30T13:51:28.821Z,22.30
2023-09-30T13:53:56.836Z,22.30
2023-09-30T13:56:26.039Z,22.30
2023-09-30T13:58:54.325Z,22.20
2023-09-30T14:01:22.294Z,22.10
2023-09-30T14:03:50.457Z,22.10
2023-09-30T14:06:18.377Z,22.00
2023-09-30T14:08:47.096Z,22.00
2023-09-30T14:11:14.951Z,22.00
2023-09-30T14:13:47.946Z,22.00
2023-09-30T14:16:15.893Z,21.90
2023-09-30T14:18:43.995Z,21.80
2023-09-30T14:21:11.899Z,21.90
2023-09-30T14:23:40.471Z,21.90
2023-09-30T14:26:12.104Z,21.80
2023-09-30T14:28:40.206Z,21.70
2023-09-30T14:31:09.509Z,21.70
2023-09-30T14:33:37.400Z,21.60
2023-09-30T14:36:06.737Z,21.60
2023-09-30T14:38:35.316Z,21.50
2023-09-30T14:41:03.128Z,21.40
2023-09-30T14:43:30.980Z,21.40
2023-09-30T14:45:58.909Z,21.40
2023-09-30T14:48:28.264Z,21.40
2023-09-30T14:50:56.296Z,21.30
2023-09-30T14:53:24.259Z,21.30
2023-09-30T14:55:52.111Z,21.20
2023-09-30T14:58:20.308Z,21.40
2023-09-30T15:00:48.308Z,21.30
2023-09-30T15:03:16.298Z,21.10
2023-09-30T15:05:45.506Z,21.20
2023-09-30T15:08:13.304Z,21.20
2023-09-30T15:10:41.200Z,21.10
2023-09-30T15:13:10.063Z,21.00
2023-09-30T15:15:38.782Z,21.00
2023-09-30T15:18:07.119Z,21.00
2023-09-30T15:20:41.067Z,20.90
2023-09-30T15:23:10.252Z,20.90
2023-09-30T15:25:42.586Z,20.90
2023-09-30T15:28:10.620Z,20.80
2023-09-30T15:30:38.463Z,20.70
2023-09-30T15:33:06.768Z,20.70
2023-09-30T15:35:34.860Z,20.70
2023-09-30T15:38:02.664Z,20.60
2023-09-30T15:40:33.295Z,20.60
2023-09-30T15:43:01.820Z,20.50
2023-09-30T15:45:29.766Z,20.40
2023-09-30T15:47:57.564Z,20.40
2023-09-30T15:50:25.383Z,20.30
2023-09-30T15:52:53.191Z,20.30
2023-09-30T15:55:21.240Z,20.20
2023-09-30T15:57:50.383Z,20.10
2023-09-30T16:00:18.699Z,20.00
2023-09-30T16:02:46.524Z,20.00
2023-09-30T16:05:14.441Z,20.00
2023-09-30T16:07:42.305Z,20.10
2023-09-30T16:10:11.404Z,20.00
2023-09-30T16:12:40.224Z,20.10
2023-09-30T16:15:12.167Z,20.10
2023-09-30T16:17:40.024Z,20.00
2023-09-30T16:20:09.803Z,20.00
2023-09-30T16:22:37.673Z,19.90
2023-09-30T16:25:06.762Z,19.80
2023-09-30T16:27:35.617Z,19.80
2023-09-30T16:30:03.637Z,19.70
2023-09-30T16:32:33.901Z,19.60
2023-09-30T16:35:03.908Z,19.50
2023-09-30T16:37:31.700Z,19.40
2023-09-30T16:39:59.611Z,19.40
2023-09-30T16:42:29.936Z,19.30
2023-09-30T16:44:57.718Z,19.30
2023-09-30T16:47:25.560Z,19.10
2023-09-30T16:49:54.828Z,19.10
2023-09-30T16:52:24.518Z,19.00
2023-09-30T16:54:52.588Z,18.90
2023-09-30T16:57:20.708Z,18.90
2023-09-30T16:59:49.549Z,18.80
2023-09-30T17:02:18.714Z,18.80
2023-09-30T17:04:47.201Z,18.70
2023-09-30T17:07:16.560Z,18.70
2023-09-30T17:09:44.442Z,18.60
2023-09-30T17:12:12.275Z,18.50
2023-09-30T17:14:40.222Z,18.40
2023-09-30T17:17:08.247Z,18.40
2023-09-30T17:19:36.068Z,18.40
2023-09-30T17:22:04.601Z,18.40
2023-09-30T17:24:34.196Z,18.30
2023-09-30T17:27:02.023Z,18.30
2023-09-30T17:29:29.899Z,18.20
2023-09-30T17:32:02.520Z,18.10
2023-09-30T17:34:30.488Z,18.10
2023-09-30T17:36:58.508Z,18.10
2023-09-30T17:39:26.495Z,18.00
2023-09-30T17:41:56.573Z,18.00
2023-09-30T17:44:24.763Z,18.00
2023-09-30T17:46:52.707Z,18.00
2023-09-30T17:49:20.782Z,17.90
2023-09-30T17:51:49.947Z,17.90
2023-09-30T17:54:18.234Z,17.90
2023-09-30T17:56:46.126Z,17.80
2023-09-30T17:59:15.318Z,17.80
2023-09-30T18:01:43.841Z,17.80
2023-09-30T18:04:11.964Z,17.80
2023-09-30T18:06:39.976Z,17.80
2023-09-30T18:09:09.035Z,17.70
2023-09-30T18:11:37.337Z,17.70
2023-09-30T18:14:06.074Z,17.60
2023-09-30T18:16:35.440Z,17.60
2023-09-30T18:19:03.407Z,17.50
2023-09-30T18:21:31.288Z,17.60
2023-09-30T18:24:00.657Z,17.60
2023-09-30T18:26:28.601Z,17.50
2023-09-30T18:28:56.462Z,17.50
2023-09-30T18:31:24.404Z,17.50
2023-09-30T18:33:53.803Z,17.40
2023-09-30T18:36:21.732Z,17.30
2023-09-30T18:38:49.633Z,17.30
2023-09-30T18:41:18.855Z,17.30
2023-09-30T18:43:47.893Z,17.20
2023-09-30T18:46:16.143Z,17.20
2023-09-30T18:48:44.939Z,17.20
2023-09-30T18:51:20.752Z,17.20
2023-09-30T18:53:48.732Z,17.10
2023-09-30T18:56:22.276Z,17.10
2023-09-30T18:58:50.273Z,17.10
2023-09-30T19:01:18.435Z,17.00
2023-09-30T19:03:46.789Z,17.00
2023-09-30T19:06:16.237Z,16.90
2023-09-30T19:08:44.140Z,16.90
2023-09-30T19:11:12.731Z,16.90
2023-09-30T19:13:41.328Z,16.80
2023-09-30T19:16:09.802Z,16.90
2023-09-30T19:18:38.241Z,16.80
2023-09-30T19:21:06.948Z,16.80
2023-09-30T19:23:37.232Z,16.70
2023-09-30T19:26:05.056Z,16.70
2023-09-30T19:28:33.110Z,16.70
2023-09-30T19:31:01.004Z,16.60
2023-09-30T19:33:32.317Z,16.50
2023-09-30T19:36:00.513Z,16.50
2023-09-30T19:38:28.489Z,16.40
2023-09-30T19:40:57.735Z,16.30
2023-09-30T19:43:25.671Z,16.30
2023-09-30T19:46:00.202Z,16.20
2023-09-30T19:48:28.303Z,16.20
2023-09-30T19:53:39.534Z,16.10
2023-09-30T19:56:10.155Z,16.20
2023-09-30T19:58:38.293Z,16.10
2023-09-30T20:01:12.941Z,16.10
2023-09-30T20:03:40.983Z,15.90
2023-09-30T20:06:20.385Z,15.90
2023-09-30T20:08:52.763Z,15.80
2023-09-30T20:11:28.581Z,15.80
2023-09-30T20:13:58.970Z,15.70
2023-09-30T20:16:27.539Z,15.70
2023-09-30T20:18:55.569Z,15.60
2023-09-30T20:21:23.536Z,15.60
2023-09-30T20:23:51.987Z,15.50
2023-09-30T20:26:24.690Z,15.40
2023-09-30T20:28:55.351Z,15.40
2023-09-30T20:31:23.428Z,15.40
2023-09-30T20:33:52.024Z,15.30
2023-09-30T20:36:20.469Z,15.30
2023-09-30T20:38:48.535Z,15.30
2023-09-30T20:41:16.580Z,15.30
2023-09-30T20:43:45.550Z,15.30
2023-09-30T20:46:17.822Z,15.40
2023-09-30T20:48:46.855Z,15.30
2023-09-30T20:51:14.827Z,15.30
2023-09-30T20:53:42.975Z,15.30
2023-09-30T20:56:14.827Z,15.20
2023-09-30T20:58:42.948Z,15.20
2023-09-30T21:01:13.781Z,15.10
2023-09-30T21:03:43.957Z,15.10
2023-09-30T21:06:12.446Z,15.00
2023-09-30T21:08:41.463Z,15.00
2023-09-30T21:11:10.286Z,15.00
2023-09-30T21:13:39.975Z,14.90
2023-09-30T21:16:07.957Z,14.90
2023-09-30T21:18:35.950Z,14.90
2023-09-30T21:21:05.546Z,14.90
2023-09-30T21:23:33.606Z,14.90
2023-09-30T21:26:01.715Z,14.80
2023-09-30T21:28:29.626Z,14.90
2023-09-30T21:30:57.533Z,14.90
2023-09-30T21:33:25.487Z,14.80
2023-09-30T21:35:57.730Z,14.70
2023-09-30T21:38:27.143Z,14.70
2023-09-30T21:40:55.045Z,14.70
2023-09-30T21:43:22.938Z,14.60
2023-09-30T21:45:50.971Z,14.70
2023-09-30T21:48:18.913Z,14.70
2023-09-30T21:50:46.820Z,14.70
2023-09-30T21:53:16.116Z,14.60
2023-09-30T21:55:45.484Z,14.60
2023-09-30T21:58:13.432Z,14.50
2023-09-30T22:00:42.952Z,14.50
2023-09-30T22:03:12.408Z,14.40
2023-09-30T22:05:42.056Z,14.40
2023-09-30T22:08:10.102Z,14.30
2023-09-30T22:10:38.257Z,14.30
2023-09-30T22:13:08.431Z,14.20
2023-09-30T22:15:37.695Z,14.20
2023-09-30T22:18:07.256Z,14.20
2023-09-30T22:20:35.452Z,14.20
2023-09-30T22:23:03.649Z,14.20
2023-09-30T22:25:32.231Z,14.20
2023-09-30T22:28:00.654Z,14.20
2023-09-30T22:30:31.946Z,14.20
2023-09-30T22:33:00.117Z,14.10
2023-09-30T22:35:28.653Z,14.10
2023-09-30T22:37:57.588Z,14.00
2023-09-30T22:40:25.657Z,13.90
2023-09-30T22:42:53.672Z,13.90
2023-09-30T22:45:21.659Z,13.90
2023-09-30T22:47:53.238Z,13.90
2023-09-30T22:50:23.290Z,13.90
2023-09-30T22:52:52.240Z,13.90
2023-09-30T22:55:23.181Z,13.90
2023-09-30T22:57:52.397Z,13.80
2023-09-30T23:00:21.523Z,13.80
2023-09-30T23:02:50.847Z,13.80
2023-09-30T23:05:19.268Z,13.70
2023-09-30T23:07:47.905Z,13.60
2023-09-30T23:10:18.632Z,13.60
2023-09-30T23:12:46.868Z,13.50
2023-09-30T23:15:17.632Z,13.50
2023-09-30T23:17:47.087Z,13.50
2023-09-30T23:20:21.373Z,13.50
2023-09-30T23:22:52.677Z,13.50
2023-09-30T23:25:27.521Z,13.40
2023-09-30T23:27:57.798Z,13.40
2023-09-30T23:30:27.177Z,13.30
2023-09-30T23:32:58.672Z,13.30
2023-09-30T23:35:30.617Z,13.30
2023-09-30T23:38:02.115Z,13.30
2023-09-30T23:40:31.705Z,13.20
2023-09-30T23:43:01.232Z,13.20
2023-09-30T23:45:31.947Z,13.10
2023-09-30T23:48:00.845Z,13.10
2023-09-30T23:50:30.961Z,13.10
2023-09-30T23:52:59.852Z,13.00
2023-09-30T23:55:28.950Z,13.00
2023-09-30T23:57:57.866Z,12.90
